MiSS Kelly — WDF2315 — position and weather

sailwx.info

Track history (hours):
 
Tides and Currents Weather Stations Pressure Air Temp Water Temp Dewpoint Dewpoint Depression Visibility Wind Speed Wind Dir Waves Ship Positions

MiSS Kelly

Owner: Florida Marine Transporters, Inc., Mandeville, LA. More information available from US FCC via Universal Licensing System and Coast Guard Vessel Documentation Center.

Last reported at 2018-Apr-20 11:40 UTC. Time now 2018-Apr-22 14:05 UTC.
Position N 29°34' W 090°29'.

Length 27 m.

Type: Towing. MMSI: 367427270.

Date/timePositionNaut miles runAvg speedWind from/ knotsBaromVisibWave heightAir tempDewpointWater temp
2018-Apr-20 11:40N 29°34' W 090°29'1 5.8
2018-Apr-20 11:29N 29°34' W 090°30'3 5.7
2018-Apr-20 11:00N 29°34' W 090°33'3 5.7
2018-Apr-20 10:30N 29°35' W 090°36'3 6.4
2018-Apr-20 10:00N 29°36' W 090°40'2 4.9
2018-Apr-20 09:30N 29°37' W 090°42'3 5.7
2018-Apr-20 09:00N 29°34' W 090°43'2 4.4
2018-Apr-20 08:30N 29°33' W 090°45'4 8.0
2018-Apr-20 08:00N 29°32' W 090°50'4 8.4
2018-Apr-20 07:30N 29°33' W 090°55'3 6.0
2018-Apr-20 06:55N 29°35' W 090°58'58 4.8
2018-Apr-19 18:44N 29°49' W 092°03'2 7.1
2018-Apr-19 18:29N 29°48' W 092°05'3 7.1
2018-Apr-19 18:00N 29°47' W 092°08'3 5.8
2018-Apr-19 17:30N 29°47' W 092°12'2 3.6
2018-Apr-19 17:00N 29°48' W 092°14'3 6.9
2018-Apr-19 16:30N 29°49' W 092°17'3 5.6
2018-Apr-19 16:00N 29°51' W 092°20'39 6.3
2018-Apr-19 09:53N 29°56' W 093°04'2 5.5
2018-Apr-19 09:30N 29°56' W 093°06'3 6.3
2018-Apr-19 09:00N 29°56' W 093°10'3 6.5
2018-Apr-19 08:30N 29°59' W 093°12'3 6.0
2018-Apr-19 08:00N 30°02' W 093°14'2 3.0
2018-Apr-19 07:30N 30°02' W 093°16'3 6.3
2018-Apr-19 07:00N 30°05' W 093°17'2 3.4
2018-Apr-19 06:30N 30°06' W 093°19'2 4.1
2018-Apr-19 06:00N 30°04' W 093°21'2 4.9
2018-Apr-19 05:30N 30°04' W 093°23'4 7.6
2018-Apr-19 05:00N 30°04' W 093°28'4 7.6
2018-Apr-19 04:30N 30°04' W 093°32'4 7.6
2018-Apr-19 04:00N 30°04' W 093°36'4 7.7
2018-Apr-19 03:30N 30°04' W 093°41'3 6.7
2018-Apr-19 03:00N 30°02' W 093°44'3 6.8
2018-Apr-19 02:30N 29°60' W 093°47'3 7.0
2018-Apr-19 02:00N 29°58' W 093°51'0 0.2
2018-Apr-19 01:30N 29°58' W 093°51'0 0.0
2018-Apr-19 01:00N 29°58' W 093°51'0 0.0
2018-Apr-19 00:30N 29°58' W 093°51'1 1.3
2018-Apr-19 00:00N 29°58' W 093°51'4 7.5
2018-Apr-18 23:30N 29°55' W 093°54'4 7.6
2018-Apr-18 23:00N 29°52' W 093°56'3 6.3
2018-Apr-18 22:30N 29°49' W 093°58'3 6.5
2018-Apr-18 22:00N 29°47' W 094°01'4 7.5
2018-Apr-18 21:30N 29°45' W 094°05'4 7.6
2018-Apr-18 21:00N 29°42' W 094°08'4 7.3
2018-Apr-18 20:30N 29°41' W 094°12'4 7.3
2018-Apr-18 20:00N 29°39' W 094°16'3 6.5
2018-Apr-18 19:30N 29°38' W 094°19'4 7.1
2018-Apr-18 19:00N 29°36' W 094°23'3 5.6
2018-Apr-18 18:27N 29°34' W 094°25'18 6.3
2018-Apr-18 15:38N 29°26' W 094°43'2 5.6
2018-Apr-18 15:16N 29°24' W 094°45'2 5.2
2018-Apr-18 14:57N 29°23' W 094°46'2 4.5
2018-Apr-18 14:30N 29°23' W 094°49'4 7.2
2018-Apr-18 13:58N 29°26' W 094°50'3 6.9
2018-Apr-18 13:30N 29°29' W 094°52'4 7.3
2018-Apr-18 13:00N 29°32' W 094°54'4 7.7
2018-Apr-18 12:30N 29°36' W 094°57'4 7.8
2018-Apr-18 12:00N 29°39' W 094°58'4 7.4
2018-Apr-18 11:30N 29°42' W 095°01'4 6.7
2018-Apr-18 10:58N 29°45' W 095°04'2 3.5
2018-Apr-18 10:25N 29°45' W 095°06'0 0.1
2018-Apr-18 09:56N 29°45' W 095°06'0 0.0
2018-Apr-18 09:30N 29°45' W 095°06'0 0.0
2018-Apr-18 08:54N 29°45' W 095°06'0 0.0
2018-Apr-18 08:12N 29°45' W 095°06'0 0.0
2018-Apr-18 07:58N 29°45' W 095°06'0 0.0
2018-Apr-18 07:30N 29°45' W 095°06'0 0.0
2018-Apr-18 07:00N 29°45' W 095°06'0 0.0
2018-Apr-18 05:02N 29°45' W 095°06'0 0.0
2018-Apr-18 05:00N 29°45' W 095°06'0 0.0
2018-Apr-18 04:30N 29°45' W 095°06'0 0.0
2018-Apr-18 03:59N 29°45' W 095°06'0 0.0
2018-Apr-18 03:30N 29°45' W 095°06'0 0.0
2018-Apr-18 03:00N 29°45' W 095°06'0 0.0
2018-Apr-18 02:30N 29°45' W 095°06'0 0.0
2018-Apr-18 02:00N 29°45' W 095°06'0 0.0
2018-Apr-18 01:30N 29°45' W 095°06'0 0.0
2018-Apr-18 01:00N 29°45' W 095°06'0 0.0
2018-Apr-18 00:30N 29°45' W 095°06'0 0.0
2018-Apr-17 23:42N 29°45' W 095°06'0 0.0
2018-Apr-17 23:19N 29°45' W 095°06'0 0.0
2018-Apr-17 23:00N 29°45' W 095°06'0 0.0
2018-Apr-17 22:28N 29°45' W 095°06'0 0.0
2018-Apr-17 21:59N 29°45' W 095°06'0 0.0
2018-Apr-17 21:11N 29°45' W 095°06'0 0.0
2018-Apr-17 20:05N 29°45' W 095°06'0 0.0
2018-Apr-17 20:00N 29°45' W 095°06'0 0.0
2018-Apr-17 19:29N 29°45' W 095°06'0 0.0
2018-Apr-17 18:59N 29°45' W 095°06'0 0.0
2018-Apr-17 18:30N 29°45' W 095°06'0 0.0
2018-Apr-17 18:00N 29°45' W 095°06'0 0.0
2018-Apr-17 17:30N 29°45' W 095°06'0 0.0
2018-Apr-17 17:00N 29°45' W 095°06'0 0.0
2018-Apr-17 16:30N 29°45' W 095°06'0 0.0
2018-Apr-17 16:00N 29°45' W 095°06'0 0.0
2018-Apr-17 15:30N 29°45' W 095°06'0 0.0
2018-Apr-17 15:00N 29°45' W 095°06'0 0.0
2018-Apr-17 14:30N 29°45' W 095°06'0 0.0
2018-Apr-17 14:00N 29°45' W 095°06'0 0.0
2018-Apr-17 13:30N 29°45' W 095°06'0 0.0
2018-Apr-17 13:00N 29°45' W 095°06'0 0.0
2018-Apr-17 12:30N 29°45' W 095°06'0 0.0
2018-Apr-17 11:58N 29°45' W 095°06'0 0.0
2018-Apr-17 11:28N 29°45' W 095°06'0 0.0
2018-Apr-17 11:00N 29°45' W 095°06'0 0.0
2018-Apr-17 10:30N 29°45' W 095°06'0 0.0
2018-Apr-17 10:00N 29°45' W 095°06'0 0.0
2018-Apr-17 09:30N 29°45' W 095°06'0 0.0
2018-Apr-17 09:00N 29°45' W 095°06'0 1.0
2018-Apr-17 08:30N 29°46' W 095°06'1 1.4
2018-Apr-17 07:59N 29°47' W 095°06'0 0.4
2018-Apr-17 07:11N 29°46' W 095°06'0 0.0
2018-Apr-17 07:00N 29°46' W 095°06'0 0.0
2018-Apr-17 06:23N 29°46' W 095°06'0 0.0
2018-Apr-17 06:00N 29°46' W 095°06'0 0.0
2018-Apr-17 05:28N 29°46' W 095°06'0 0.0
2018-Apr-17 05:00N 29°46' W 095°06'0 0.0
2018-Apr-17 04:29N 29°46' W 095°06'0 0.0
2018-Apr-17 03:57N 29°46' W 095°06'0 0.0
2018-Apr-17 03:21N 29°46' W 095°06'0 0.0
2018-Apr-17 02:56N 29°46' W 095°06'0 0.0
2018-Apr-17 02:22N 29°46' W 095°06'0 0.0
2018-Apr-16 20:30N 29°46' W 095°06'1 1.2
2018-Apr-16 20:00N 29°46' W 095°06'1 2.0
2018-Apr-16 19:22N 29°45' W 095°06'0 0.0
2018-Apr-16 17:15N 29°45' W 095°06'0 0.0
2018-Apr-16 17:00N 29°45' W 095°06'2 3.3
2018-Apr-16 16:30N 29°46' W 095°06'0 0.7
2018-Apr-16 15:57N 29°46' W 095°06'1 0.9
2018-Apr-16 14:31N 29°45' W 095°06'0 0.0
2018-Apr-16 11:05N 29°45' W 095°06'0 0.0
2018-Apr-16 10:52N 29°45' W 095°06'0 0.0
2018-Apr-16 10:11N 29°45' W 095°06'0 0.0
2018-Apr-16 09:50N 29°45' W 095°06'0 0.1
2018-Apr-16 07:45N 29°45' W 095°06'1 4.0
2018-Apr-16 07:30N 29°46' W 095°05'1 1.4
2018-Apr-16 07:00N 29°46' W 095°06'0 0.4
2018-Apr-16 06:02N 29°46' W 095°06'0 0.1
2018-Apr-16 05:53N 29°46' W 095°06'3 4.1
2018-Apr-16 05:17N 29°44' W 095°03'2 6.6
2018-Apr-16 05:00N 29°44' W 095°01'3 6.0
2018-Apr-16 04:30N 29°41' W 094°59'4 8.8
2018-Apr-16 04:00N 29°37' W 094°57'4 9.0
2018-Apr-16 03:30N 29°33' W 094°55'5 9.1
2018-Apr-16 03:00N 29°30' W 094°52'5 9.1
2018-Apr-16 02:27N 29°25' W 094°50'31 3.5
2018-Apr-15 17:39N 29°38' W 094°18'2 5.3
2018-Apr-15 17:14N 29°39' W 094°15'2 5.3
2018-Apr-15 16:55N 29°40' W 094°14'2 5.4
2018-Apr-15 16:30N 29°41' W 094°11'2 4.9
2018-Apr-15 16:00N 29°42' W 094°09'2 4.6
2018-Apr-15 15:30N 29°43' W 094°07'3 5.4
2018-Apr-15 15:00N 29°45' W 094°04'3 5.4
2018-Apr-15 14:30N 29°47' W 094°02'3 5.3
2018-Apr-15 14:00N 29°49' W 093°60'2 4.9
2018-Apr-15 13:30N 29°50' W 093°57'3 7.0
2018-Apr-15 13:00N 29°53' W 093°55'4 7.0
2018-Apr-15 12:30N 29°56' W 093°53'2 5.0
2018-Apr-15 12:00N 29°58' W 093°51'1 1.4
2018-Apr-15 11:30N 29°58' W 093°51'0 0.0
2018-Apr-15 11:00N 29°58' W 093°51'0 0.3
2018-Apr-15 10:30N 29°58' W 093°51'0 0.4
2018-Apr-15 10:00N 29°58' W 093°51'0 0.0
2018-Apr-15 09:30N 29°58' W 093°51'0 0.0
2018-Apr-15 09:00N 29°58' W 093°51'0 0.3
2018-Apr-15 08:30N 29°58' W 093°51'0 0.3
2018-Apr-15 08:00N 29°58' W 093°51'3 6.9
2018-Apr-15 07:30N 29°59' W 093°47'510.4
2018-Apr-15 07:00N 30°03' W 093°43'4 8.9
2018-Apr-15 06:30N 30°04' W 093°38'4 7.6
2018-Apr-15 06:00N 30°04' W 093°34'3 6.5
2018-Apr-15 05:30N 30°04' W 093°30'3 6.8
2018-Apr-15 05:00N 30°04' W 093°26'3 6.4
2018-Apr-15 04:30N 30°04' W 093°22'2 4.1
2018-Apr-15 04:00N 30°05' W 093°20'2 4.3
2018-Apr-15 03:30N 30°05' W 093°18'2 4.6
2018-Apr-15 03:00N 30°04' W 093°16'3 5.5
2018-Apr-15 02:30N 30°02' W 093°14'3 6.5
2018-Apr-15 02:00N 29°59' W 093°12'3 6.9
2018-Apr-15 01:30N 29°56' W 093°10'3 6.7
2018-Apr-15 01:00N 29°56' W 093°06'113 5.8
2018-Apr-14 05:29N 29°36' W 090°58'4 7.3
2018-Apr-14 04:59N 29°33' W 090°55'4 7.2
2018-Apr-14 04:28N 29°32' W 090°51'3 7.5
2018-Apr-14 04:00N 29°32' W 090°47'3 6.1
2018-Apr-14 03:30N 29°34' W 090°44'2 3.2
2018-Apr-14 03:00N 29°35' W 090°43'2 3.7
2018-Apr-14 02:30N 29°37' W 090°41'3 5.9
2018-Apr-14 02:00N 29°35' W 090°38'3 6.3
2018-Apr-14 01:30N 29°34' W 090°35'4 7.2
2018-Apr-14 01:00N 29°34' W 090°31'4 7.6
2018-Apr-14 00:26N 29°33' W 090°26'  
Track history (hours):
 
Tides and Currents Weather Stations Pressure Air Temp Water Temp Dewpoint Dewpoint Depression Visibility Wind Speed Wind Dir Waves Ship Positions

MiSS Kelly

Owner: Florida Marine Transporters, Inc., Mandeville, LA. More information available from US FCC via Universal Licensing System and Coast Guard Vessel Documentation Center.

Last reported at 2018-Apr-20 11:40 UTC. Time now 2018-Apr-22 14:05 UTC.
Position N 29°34' W 090°29'.

Length 27 m.

Type: Towing. MMSI: 367427270.

Date/timePositionNaut miles runAvg speedWind from/ knotsBaromVisibWave heightAir tempDewpointWater temp
2018-Apr-20 11:40N 29°34' W 090°29'1 5.8
2018-Apr-20 11:29N 29°34' W 090°30'3 5.7
2018-Apr-20 11:00N 29°34' W 090°33'3 5.7
2018-Apr-20 10:30N 29°35' W 090°36'3 6.4
2018-Apr-20 10:00N 29°36' W 090°40'2 4.9
2018-Apr-20 09:30N 29°37' W 090°42'3 5.7
2018-Apr-20 09:00N 29°34' W 090°43'2 4.4
2018-Apr-20 08:30N 29°33' W 090°45'4 8.0
2018-Apr-20 08:00N 29°32' W 090°50'4 8.4
2018-Apr-20 07:30N 29°33' W 090°55'3 6.0
2018-Apr-20 06:55N 29°35' W 090°58'58 4.8
2018-Apr-19 18:44N 29°49' W 092°03'2 7.1
2018-Apr-19 18:29N 29°48' W 092°05'3 7.1
2018-Apr-19 18:00N 29°47' W 092°08'3 5.8
2018-Apr-19 17:30N 29°47' W 092°12'2 3.6
2018-Apr-19 17:00N 29°48' W 092°14'3 6.9
2018-Apr-19 16:30N 29°49' W 092°17'3 5.6
2018-Apr-19 16:00N 29°51' W 092°20'39 6.3
2018-Apr-19 09:53N 29°56' W 093°04'2 5.5
2018-Apr-19 09:30N 29°56' W 093°06'3 6.3
2018-Apr-19 09:00N 29°56' W 093°10'3 6.5
2018-Apr-19 08:30N 29°59' W 093°12'3 6.0
2018-Apr-19 08:00N 30°02' W 093°14'2 3.0
2018-Apr-19 07:30N 30°02' W 093°16'3 6.3
2018-Apr-19 07:00N 30°05' W 093°17'2 3.4
2018-Apr-19 06:30N 30°06' W 093°19'2 4.1
2018-Apr-19 06:00N 30°04' W 093°21'2 4.9
2018-Apr-19 05:30N 30°04' W 093°23'4 7.6
2018-Apr-19 05:00N 30°04' W 093°28'4 7.6
2018-Apr-19 04:30N 30°04' W 093°32'4 7.6
2018-Apr-19 04:00N 30°04' W 093°36'4 7.7
2018-Apr-19 03:30N 30°04' W 093°41'3 6.7
2018-Apr-19 03:00N 30°02' W 093°44'3 6.8
2018-Apr-19 02:30N 29°60' W 093°47'3 7.0
2018-Apr-19 02:00N 29°58' W 093°51'0 0.2
2018-Apr-19 01:30N 29°58' W 093°51'0 0.0
2018-Apr-19 01:00N 29°58' W 093°51'0 0.0
2018-Apr-19 00:30N 29°58' W 093°51'1 1.3
2018-Apr-19 00:00N 29°58' W 093°51'4 7.5
2018-Apr-18 23:30N 29°55' W 093°54'4 7.6
2018-Apr-18 23:00N 29°52' W 093°56'3 6.3
2018-Apr-18 22:30N 29°49' W 093°58'3 6.5
2018-Apr-18 22:00N 29°47' W 094°01'4 7.5
2018-Apr-18 21:30N 29°45' W 094°05'4 7.6
2018-Apr-18 21:00N 29°42' W 094°08'4 7.3
2018-Apr-18 20:30N 29°41' W 094°12'4 7.3
2018-Apr-18 20:00N 29°39' W 094°16'3 6.5
2018-Apr-18 19:30N 29°38' W 094°19'4 7.1
2018-Apr-18 19:00N 29°36' W 094°23'3 5.6
2018-Apr-18 18:27N 29°34' W 094°25'18 6.3
2018-Apr-18 15:38N 29°26' W 094°43'2 5.6
2018-Apr-18 15:16N 29°24' W 094°45'2 5.2
2018-Apr-18 14:57N 29°23' W 094°46'2 4.5
2018-Apr-18 14:30N 29°23' W 094°49'4 7.2
2018-Apr-18 13:58N 29°26' W 094°50'3 6.9
2018-Apr-18 13:30N 29°29' W 094°52'4 7.3
2018-Apr-18 13:00N 29°32' W 094°54'4 7.7
2018-Apr-18 12:30N 29°36' W 094°57'4 7.8
2018-Apr-18 12:00N 29°39' W 094°58'4 7.4
2018-Apr-18 11:30N 29°42' W 095°01'4 6.7
2018-Apr-18 10:58N 29°45' W 095°04'2 3.5
2018-Apr-18 10:25N 29°45' W 095°06'0 0.1
2018-Apr-18 09:56N 29°45' W 095°06'0 0.0
2018-Apr-18 09:30N 29°45' W 095°06'0 0.0
2018-Apr-18 08:54N 29°45' W 095°06'0 0.0
2018-Apr-18 08:12N 29°45' W 095°06'0 0.0
2018-Apr-18 07:58N 29°45' W 095°06'0 0.0
2018-Apr-18 07:30N 29°45' W 095°06'0 0.0
2018-Apr-18 07:00N 29°45' W 095°06'0 0.0
2018-Apr-18 05:02N 29°45' W 095°06'0 0.0
2018-Apr-18 05:00N 29°45' W 095°06'0 0.0
2018-Apr-18 04:30N 29°45' W 095°06'0 0.0
2018-Apr-18 03:59N 29°45' W 095°06'0 0.0
2018-Apr-18 03:30N 29°45' W 095°06'0 0.0
2018-Apr-18 03:00N 29°45' W 095°06'0 0.0
2018-Apr-18 02:30N 29°45' W 095°06'0 0.0
2018-Apr-18 02:00N 29°45' W 095°06'0 0.0
2018-Apr-18 01:30N 29°45' W 095°06'0 0.0
2018-Apr-18 01:00N 29°45' W 095°06'0 0.0
2018-Apr-18 00:30N 29°45' W 095°06'0 0.0
2018-Apr-17 23:42N 29°45' W 095°06'0 0.0
2018-Apr-17 23:19N 29°45' W 095°06'0 0.0
2018-Apr-17 23:00N 29°45' W 095°06'0 0.0
2018-Apr-17 22:28N 29°45' W 095°06'0 0.0
2018-Apr-17 21:59N 29°45' W 095°06'0 0.0
2018-Apr-17 21:11N 29°45' W 095°06'0 0.0
2018-Apr-17 20:05N 29°45' W 095°06'0 0.0
2018-Apr-17 20:00N 29°45' W 095°06'0 0.0
2018-Apr-17 19:29N 29°45' W 095°06'0 0.0
2018-Apr-17 18:59N 29°45' W 095°06'0 0.0
2018-Apr-17 18:30N 29°45' W 095°06'0 0.0
2018-Apr-17 18:00N 29°45' W 095°06'0 0.0
2018-Apr-17 17:30N 29°45' W 095°06'0 0.0
2018-Apr-17 17:00N 29°45' W 095°06'0 0.0
2018-Apr-17 16:30N 29°45' W 095°06'0 0.0
2018-Apr-17 16:00N 29°45' W 095°06'0 0.0
2018-Apr-17 15:30N 29°45' W 095°06'0 0.0
2018-Apr-17 15:00N 29°45' W 095°06'0 0.0
2018-Apr-17 14:30N 29°45' W 095°06'0 0.0
2018-Apr-17 14:00N 29°45' W 095°06'0 0.0
2018-Apr-17 13:30N 29°45' W 095°06'0 0.0
2018-Apr-17 13:00N 29°45' W 095°06'0 0.0
2018-Apr-17 12:30N 29°45' W 095°06'0 0.0
2018-Apr-17 11:58N 29°45' W 095°06'0 0.0
2018-Apr-17 11:28N 29°45' W 095°06'0 0.0
2018-Apr-17 11:00N 29°45' W 095°06'0 0.0
2018-Apr-17 10:30N 29°45' W 095°06'0 0.0
2018-Apr-17 10:00N 29°45' W 095°06'0 0.0
2018-Apr-17 09:30N 29°45' W 095°06'0 0.0
2018-Apr-17 09:00N 29°45' W 095°06'0 1.0
2018-Apr-17 08:30N 29°46' W 095°06'1 1.4
2018-Apr-17 07:59N 29°47' W 095°06'0 0.4
2018-Apr-17 07:11N 29°46' W 095°06'0 0.0
2018-Apr-17 07:00N 29°46' W 095°06'0 0.0
2018-Apr-17 06:23N 29°46' W 095°06'0 0.0
2018-Apr-17 06:00N 29°46' W 095°06'0 0.0
2018-Apr-17 05:28N 29°46' W 095°06'0 0.0
2018-Apr-17 05:00N 29°46' W 095°06'0 0.0
2018-Apr-17 04:29N 29°46' W 095°06'0 0.0
2018-Apr-17 03:57N 29°46' W 095°06'0 0.0
2018-Apr-17 03:21N 29°46' W 095°06'0 0.0
2018-Apr-17 02:56N 29°46' W 095°06'0 0.0
2018-Apr-17 02:22N 29°46' W 095°06'0 0.0
2018-Apr-16 20:30N 29°46' W 095°06'1 1.2
2018-Apr-16 20:00N 29°46' W 095°06'1 2.0
2018-Apr-16 19:22N 29°45' W 095°06'0 0.0
2018-Apr-16 17:15N 29°45' W 095°06'0 0.0
2018-Apr-16 17:00N 29°45' W 095°06'2 3.3
2018-Apr-16 16:30N 29°46' W 095°06'0 0.7
2018-Apr-16 15:57N 29°46' W 095°06'1 0.9
2018-Apr-16 14:31N 29°45' W 095°06'0 0.0
2018-Apr-16 11:05N 29°45' W 095°06'0 0.0
2018-Apr-16 10:52N 29°45' W 095°06'0 0.0
2018-Apr-16 10:11N 29°45' W 095°06'0 0.0
2018-Apr-16 09:50N 29°45' W 095°06'0 0.1
2018-Apr-16 07:45N 29°45' W 095°06'1 4.0
2018-Apr-16 07:30N 29°46' W 095°05'1 1.4
2018-Apr-16 07:00N 29°46' W 095°06'0 0.4
2018-Apr-16 06:02N 29°46' W 095°06'0 0.1
2018-Apr-16 05:53N 29°46' W 095°06'3 4.1
2018-Apr-16 05:17N 29°44' W 095°03'2 6.6
2018-Apr-16 05:00N 29°44' W 095°01'3 6.0
2018-Apr-16 04:30N 29°41' W 094°59'4 8.8
2018-Apr-16 04:00N 29°37' W 094°57'4 9.0
2018-Apr-16 03:30N 29°33' W 094°55'5 9.1
2018-Apr-16 03:00N 29°30' W 094°52'5 9.1
2018-Apr-16 02:27N 29°25' W 094°50'31 3.5
2018-Apr-15 17:39N 29°38' W 094°18'2 5.3
2018-Apr-15 17:14N 29°39' W 094°15'2 5.3
2018-Apr-15 16:55N 29°40' W 094°14'2 5.4
2018-Apr-15 16:30N 29°41' W 094°11'2 4.9
2018-Apr-15 16:00N 29°42' W 094°09'2 4.6
2018-Apr-15 15:30N 29°43' W 094°07'3 5.4
2018-Apr-15 15:00N 29°45' W 094°04'3 5.4
2018-Apr-15 14:30N 29°47' W 094°02'3 5.3
2018-Apr-15 14:00N 29°49' W 093°60'2 4.9
2018-Apr-15 13:30N 29°50' W 093°57'3 7.0
2018-Apr-15 13:00N 29°53' W 093°55'4 7.0
2018-Apr-15 12:30N 29°56' W 093°53'2 5.0
2018-Apr-15 12:00N 29°58' W 093°51'1 1.4
2018-Apr-15 11:30N 29°58' W 093°51'0 0.0
2018-Apr-15 11:00N 29°58' W 093°51'0 0.3
2018-Apr-15 10:30N 29°58' W 093°51'0 0.4
2018-Apr-15 10:00N 29°58' W 093°51'0 0.0
2018-Apr-15 09:30N 29°58' W 093°51'0 0.0
2018-Apr-15 09:00N 29°58' W 093°51'0 0.3
2018-Apr-15 08:30N 29°58' W 093°51'0 0.3
2018-Apr-15 08:00N 29°58' W 093°51'3 6.9
2018-Apr-15 07:30N 29°59' W 093°47'510.4
2018-Apr-15 07:00N 30°03' W 093°43'4 8.9
2018-Apr-15 06:30N 30°04' W 093°38'4 7.6
2018-Apr-15 06:00N 30°04' W 093°34'3 6.5
2018-Apr-15 05:30N 30°04' W 093°30'3 6.8
2018-Apr-15 05:00N 30°04' W 093°26'3 6.4
2018-Apr-15 04:30N 30°04' W 093°22'2 4.1
2018-Apr-15 04:00N 30°05' W 093°20'2 4.3
2018-Apr-15 03:30N 30°05' W 093°18'2 4.6
2018-Apr-15 03:00N 30°04' W 093°16'3 5.5
2018-Apr-15 02:30N 30°02' W 093°14'3 6.5
2018-Apr-15 02:00N 29°59' W 093°12'3 6.9
2018-Apr-15 01:30N 29°56' W 093°10'3 6.7
2018-Apr-15 01:00N 29°56' W 093°06'113 5.8
2018-Apr-14 05:29N 29°36' W 090°58'4 7.3
2018-Apr-14 04:59N 29°33' W 090°55'4 7.2
2018-Apr-14 04:28N 29°32' W 090°51'3 7.5
2018-Apr-14 04:00N 29°32' W 090°47'3 6.1
2018-Apr-14 03:30N 29°34' W 090°44'2 3.2
2018-Apr-14 03:00N 29°35' W 090°43'2 3.7
2018-Apr-14 02:30N 29°37' W 090°41'3 5.9
2018-Apr-14 02:00N 29°35' W 090°38'3 6.3
2018-Apr-14 01:30N 29°34' W 090°35'4 7.2
2018-Apr-14 01:00N 29°34' W 090°31'4 7.6
2018-Apr-14 00:26N 29°33' W 090°26'  

Dump ship's entire track history